»·PEaware :: VHPZF KMHV-KVCV

VHPZF :: KMHV-KVCV

FLIGHT INFORMATION

Flight Status: Arrived
Operator: Unknown
More flights by this operator :: More flights under this callsign
Pilot: Stephen O. (32437)
Aircraft: CESSNA 172 SKYHAWK
(C172)
More flights by this aircraft type
Origin: KMHV Mojave
United States
Destination: KVCV Socal Logistics
United States
More flights between these airports :: More routes between these airports
Route: DCT
File this flight plan on PilotEdge
Remarks:
Altitude:
(Current/Filed)
5,500ft
Speed:
(Current/Filed)
115kts
Departed: 22-Nov-20 10:05 PM
Arrived: 22-Nov-20 10:36 PM
Distance/Time
Traveled:
48nm/0:31
Distance/Time
To Go:
Arrived

Flight Plot

Page will automatically refresh every two minutes.

Flight plan parsing failed; only flown route is shown


Map Options




Map Legend


Flown Route
Filed Route
Departure Airport
Arrival Airport
Navaid (VOR, NDB)
Fix

Horizontal Profiles

Position Reports

Time Latitude Longitude Heading Altitude Ground
Speed
22-Nov-20 21:54 35.052445 -118.143934 135 2728ft 0kts
22-Nov-20 21:55 35.052445 -118.143934 135 2728ft 0kts
22-Nov-20 21:56 35.052445 -118.143934 135 2728ft 0kts
22-Nov-20 21:57 35.052445 -118.143934 135 2728ft 0kts
22-Nov-20 21:58 35.052441 -118.143928 122 2728ft 1kts
22-Nov-20 21:59 35.053943 -118.144606 341 2732ft 15kts
22-Nov-20 22:00 35.057515 -118.148076 38 2749ft 16kts
22-Nov-20 22:01 35.058090 -118.142526 355 2739ft 18kts
22-Nov-20 22:02 35.058427 -118.142539 0 2739ft 0kts
22-Nov-20 22:03 35.058427 -118.142539 0 2739ft 0kts
22-Nov-20 22:04 35.059084 -118.156339 268 2902ft 77kts
22-Nov-20 22:05 35.057305 -118.182190 264 3491ft 80kts
22-Nov-20 22:06 35.056010 -118.203169 187 3969ft 60kts
22-Nov-20 22:07 35.046582 -118.182471 105 4332ft 80kts
22-Nov-20 22:08 35.040872 -118.154540 97 4857ft 90kts
22-Nov-20 22:09 35.039854 -118.123505 96 5406ft 93kts
22-Nov-20 22:10 35.023642 -118.091887 122 5407ft 120kts
22-Nov-20 22:11 35.004305 -118.059138 124 5480ft 118kts
22-Nov-20 22:12 34.984696 -118.026380 124 5499ft 118kts
22-Nov-20 22:13 34.966209 -117.995443 125 5499ft 110kts
22-Nov-20 22:14 34.948227 -117.965372 124 5500ft 110kts
22-Nov-20 22:15 34.930109 -117.935096 124 5508ft 110kts
22-Nov-20 22:16 34.912013 -117.904880 124 5512ft 110kts
22-Nov-20 22:17 34.893846 -117.874574 124 5515ft 113kts
22-Nov-20 22:18 34.875028 -117.843208 125 5512ft 115kts
22-Nov-20 22:19 34.856199 -117.811847 124 5511ft 115kts
22-Nov-20 22:20 34.837191 -117.780220 124 5508ft 115kts
22-Nov-20 22:21 34.818267 -117.748761 124 5511ft 115kts
22-Nov-20 22:22 34.799317 -117.717285 124 5506ft 115kts
22-Nov-20 22:23 34.780327 -117.685771 125 5510ft 115kts
22-Nov-20 22:24 34.761233 -117.654113 125 5507ft 116kts
22-Nov-20 22:25 34.742121 -117.622451 125 5503ft 115kts
22-Nov-20 22:26 34.723096 -117.590964 125 5505ft 115kts
22-Nov-20 22:27 34.703919 -117.559257 125 5509ft 116kts
22-Nov-20 22:28 34.684703 -117.527504 125 5504ft 116kts
22-Nov-20 22:29 34.666930 -117.494379 116 5520ft 114kts
22-Nov-20 22:30 34.663840 -117.456515 84 4969ft 114kts
22-Nov-20 22:31 34.666776 -117.418637 84 4031ft 110kts
22-Nov-20 22:32 34.657142 -117.387937 147 3440ft 99kts
22-Nov-20 22:33 34.633422 -117.387032 183 3158ft 82kts
22-Nov-20 22:34 34.613210 -117.386727 178 2836ft 48kts
22-Nov-20 22:35 34.610575 -117.384934 84 2837ft 0kts
22-Nov-20 22:36 34.610575 -117.384934 84 2837ft 0kts
22-Nov-20 22:37 34.610481 -117.384634 121 2837ft 9kts
22-Nov-20 22:38 34.608620 -117.384133 179 2840ft 27kts
22-Nov-20 22:39 34.598731 -117.384076 179 2857ft 40kts
22-Nov-20 22:40 34.593013 -117.381620 139 2867ft 20kts
22-Nov-20 22:41 34.589074 -117.380142 224 2878ft 15kts
22-Nov-20 22:42 34.585166 -117.381219 73 2876ft 24kts
22-Nov-20 22:43 34.586051 -117.378715 61 2873ft 0kts
22-Nov-20 22:44 34.586051 -117.378715 61 2873ft 0kts
22-Nov-20 22:45 34.586051 -117.378715 61 2873ft 0kts
22-Nov-20 22:46 34.586051 -117.378715 61 2873ft 0kts

Navigation Log

Ident Type
Flight plan parsing failed, navigation log unavailable